Time;durP1;ratioP1;P1;durP2;ratioP2;P2;SDS_P1;SDS_P2;PMS_P1;PMS_P2;Temp;Humidity;BMP_temperature;BMP_pressure;BME280_temperature;BME280_humidity;BME280_pressure;Samples;Min_cycle;Max_cycle;Signal;HPM_P1;HPM_P2
2023/12/27 00:00:55;;;;;;;8.27;5.05;;;;;;;2.39;100.00;102155.13;5156563;27;20051;-78
2023/12/27 00:03:22;;;;;;;13.50;5.00;;;;;;;2.37;100.00;102156.56;5157368;27;20070;-78
2023/12/27 00:05:49;;;;;;;12.52;5.70;;;;;;;2.34;100.00;102150.13;5157958;27;20093;-78
2023/12/27 00:08:15;;;;;;;8.88;5.85;;;;;;;2.31;100.00;102150.84;5153521;27;20051;-78
2023/12/27 00:10:42;;;;;;;19.50;6.18;;;;;;;2.29;100.00;102156.44;5157358;27;20043;-78
2023/12/27 00:13:08;;;;;;;11.50;5.15;;;;;;;2.26;100.00;102151.88;5157298;27;20114;-80
2023/12/27 00:15:35;;;;;;;7.95;5.13;;;;;;;2.21;100.00;102154.78;5161559;27;20106;-79
2023/12/27 00:18:02;;;;;;;6.05;4.45;;;;;;;2.17;100.00;102148.69;5178787;27;20045;-79
2023/12/27 00:20:30;;;;;;;8.15;4.72;;;;;;;2.15;100.00;102150.91;5159800;27;20043;-79
2023/12/27 00:22:57;;;;;;;8.27;5.00;;;;;;;2.10;100.00;102143.31;5178985;27;20053;-79
2023/12/27 00:25:23;;;;;;;9.45;5.05;;;;;;;2.09;100.00;102144.41;5178980;27;20042;-79
2023/12/27 00:27:50;;;;;;;6.82;4.65;;;;;;;2.07;100.00;102141.38;5160208;27;20057;-79
2023/12/27 00:30:18;;;;;;;6.63;3.88;;;;;;;2.04;100.00;102136.03;5138667;27;20138;-79
2023/12/27 00:32:44;;;;;;;4.22;3.83;;;;;;;2.03;100.00;102131.91;5159617;27;20047;-79
2023/12/27 00:35:11;;;;;;;7.03;4.13;;;;;;;1.99;100.00;102140.50;5181128;27;20406;-78
2023/12/27 00:37:38;;;;;;;5.07;4.30;;;;;;;1.97;100.00;102136.69;5161681;27;20093;-78
2023/12/27 00:40:05;;;;;;;8.13;4.70;;;;;;;1.92;100.00;102136.97;5161887;27;20074;-78
2023/12/27 00:42:32;;;;;;;6.45;4.20;;;;;;;1.90;100.00;102139.19;5158657;27;20042;-78
2023/12/27 00:45:00;;;;;;;4.97;4.05;;;;;;;1.88;100.00;102131.66;5141052;27;20041;-78
2023/12/27 00:47:28;;;;;;;6.57;3.85;;;;;;;1.87;100.00;102139.88;5157091;27;20043;-78
2023/12/27 00:49:55;;;;;;;5.70;3.75;;;;;;;1.84;100.00;102136.06;5159154;27;20491;-77
2023/12/27 00:52:21;;;;;;;10.95;3.88;;;;;;;1.80;100.00;102131.84;5158394;27;20046;-78
2023/12/27 00:54:48;;;;;;;5.22;3.40;;;;;;;1.76;100.00;102134.41;5158959;27;20046;-78
2023/12/27 00:57:14;;;;;;;4.35;3.45;;;;;;;1.75;100.00;102137.38;5177069;27;20568;-78
2023/12/27 00:59:41;;;;;;;4.53;3.58;;;;;;;1.71;100.00;102137.28;5158296;27;20054;-78
2023/12/27 01:02:08;;;;;;;5.28;3.38;;;;;;;1.68;100.00;102154.50;5159068;27;20580;-78
2023/12/27 01:04:34;;;;;;;5.47;4.13;;;;;;;1.70;100.00;102140.25;5176638;27;20819;-78
2023/12/27 01:07:01;;;;;;;7.80;3.90;;;;;;;1.71;100.00;102136.53;5177517;27;20501;-78
2023/12/27 01:09:28;;;;;;;7.57;3.83;;;;;;;1.70;100.00;102135.78;5157958;27;20074;-78
2023/12/27 01:11:54;;;;;;;6.38;3.90;;;;;;;1.68;100.00;102128.25;5178402;27;20660;-78
2023/12/27 01:14:21;;;;;;;5.70;3.60;;;;;;;1.66;100.00;102125.19;5157483;27;20053;-78
2023/12/27 01:16:48;;;;;;;9.10;3.78;;;;;;;1.64;100.00;102132.66;5158777;27;20879;-78
2023/12/27 01:19:15;;;;;;;8.48;3.92;;;;;;;1.62;100.00;102132.22;5157627;27;20054;-78
2023/12/27 01:21:41;;;;;;;6.43;4.13;;;;;;;1.64;100.00;102134.50;5157769;27;20043;-78
2023/12/27 01:24:08;;;;;;;7.93;3.90;;;;;;;1.65;100.00;102143.91;5158401;27;20049;-78
2023/12/27 01:26:35;;;;;;;5.32;4.20;;;;;;;1.65;100.00;102151.78;5136391;27;20947;-78
2023/12/27 01:29:01;;;;;;;8.95;4.28;;;;;;;1.64;100.00;102151.03;5157734;27;20144;-78
2023/12/27 01:31:29;;;;;;;7.97;4.55;;;;;;;1.63;100.00;102135.63;5158354;27;20046;-78
2023/12/27 01:33:55;;;;;;;5.53;4.15;;;;;;;1.63;100.00;102133.75;5177284;27;20484;-78
2023/12/27 01:36:37;;;;;;;10.98;4.57;;;;;;;1.65;100.00;102134.16;5155461;27;20099;-78
2023/12/27 01:39:04;;;;;;;7.13;3.92;;;;;;;1.66;100.00;102133.06;5177990;27;20082;-78
2023/12/27 01:41:31;;;;;;;8.48;3.67;;;;;;;1.66;100.00;102132.31;5159749;27;20100;-78
2023/12/27 01:43:58;;;;;;;8.95;4.13;;;;;;;1.66;100.00;102133.06;5178783;27;20066;-78
2023/12/27 01:46:26;;;;;;;5.05;4.13;;;;;;;1.65;100.00;102128.16;5160199;27;20044;-78
2023/12/27 01:48:52;;;;;;;6.10;4.03;;;;;;;1.62;100.00;102128.84;5183048;27;20865;-78
2023/12/27 01:51:20;;;;;;;6.60;4.30;;;;;;;1.62;100.00;102131.47;5181727;27;20047;-78
2023/12/27 01:53:48;;;;;;;6.82;4.28;;;;;;;1.58;100.00;102130.66;5163996;27;20103;-78
2023/12/27 01:56:15;;;;;;;6.50;3.47;;;;;;;1.55;100.00;102126.09;5174695;27;20070;-78
2023/12/27 01:58:42;;;;;;;4.43;3.90;;;;;;;1.55;100.00;102133.97;5177208;27;20050;-78
2023/12/27 02:01:09;;;;;;;12.85;4.10;;;;;;;1.54;100.00;102141.09;5162007;27;20100;-78
2023/12/27 02:03:36;;;;;;;5.65;4.47;;;;;;;1.52;100.00;102135.41;5163490;27;20047;-78
2023/12/27 02:06:02;;;;;;;7.75;4.78;;;;;;;1.49;100.00;102136.09;5161099;27;20489;-78
2023/12/27 02:08:30;;;;;;;7.35;4.40;;;;;;;1.47;100.00;102132.28;5139340;27;20139;-78
2023/12/27 02:10:56;;;;;;;5.22;4.50;;;;;;;1.42;100.00;102130.69;5178279;27;20038;-78
2023/12/27 02:13:23;;;;;;;7.03;4.43;;;;;;;1.36;100.00;102142.56;5177665;27;20042;-78
2023/12/27 02:15:51;;;;;;;5.70;3.88;;;;;;;1.36;100.00;102137.31;5135272;27;20052;-78
2023/12/27 02:18:19;;;;;;;8.52;4.00;;;;;;;1.38;100.00;102131.72;5135930;27;20056;-78
2023/12/27 02:20:48;;;;;;;5.38;3.95;;;;;;;1.37;100.00;102136.22;5133468;27;20040;-78
2023/12/27 02:23:18;;;;;;;5.95;4.13;;;;;;;1.39;100.00;102135.88;5133497;27;20492;-78
2023/12/27 02:25:46;;;;;;;6.28;4.13;;;;;;;1.38;100.00;102127.22;5131873;27;20063;-78
2023/12/27 02:28:13;;;;;;;6.72;4.38;;;;;;;1.39;100.00;102115.63;5117127;27;20135;-78
2023/12/27 02:30:39;;;;;;;7.28;4.07;;;;;;;1.39;100.00;102113.00;5134956;27;20560;-78
2023/12/27 02:33:06;;;;;;;7.38;4.60;;;;;;;1.38;100.00;102127.22;5140235;27;20047;-78
2023/12/27 02:35:33;;;;;;;5.53;4.15;;;;;;;1.34;100.00;102114.03;5138947;27;20068;-78
2023/12/27 02:38:01;;;;;;;7.28;4.57;;;;;;;1.36;100.00;102110.31;5137891;27;20052;-78
2023/12/27 02:40:27;;;;;;;5.47;4.22;;;;;;;1.39;100.00;102107.75;5139153;27;20880;-78
2023/12/27 02:42:54;;;;;;;5.53;4.25;;;;;;;1.40;100.00;102101.41;5138838;27;20044;-78
2023/12/27 02:45:20;;;;;;;6.40;4.50;;;;;;;1.42;100.00;102107.09;5138497;27;20511;-78
2023/12/27 02:47:47;;;;;;;9.27;4.18;;;;;;;1.42;100.00;102099.22;5138826;27;20048;-78
2023/12/27 02:50:14;;;;;;;6.40;4.28;;;;;;;1.42;100.00;102098.44;5144156;27;20078;-78
2023/12/27 02:52:40;;;;;;;5.82;3.90;;;;;;;1.40;100.00;102087.53;5141767;27;20122;-78
2023/12/27 02:55:07;;;;;;;7.72;4.10;;;;;;;1.40;100.00;102074.41;5138855;27;20560;-78
2023/12/27 02:57:34;;;;;;;5.47;3.90;;;;;;;1.40;100.00;102072.56;5118650;27;20052;-78
2023/12/27 03:00:01;;;;;;;5.53;4.28;;;;;;;1.43;100.00;102065.84;5139052;27;20476;-78
2023/12/27 03:02:27;;;;;;;9.23;4.47;;;;;;;1.45;100.00;102071.53;5138337;27;20518;-78
2023/12/27 03:04:54;;;;;;;6.05;4.40;;;;;;;1.46;100.00;102075.66;5137788;27;20036;-78
2023/12/27 03:07:20;;;;;;;9.32;4.55;;;;;;;1.49;100.00;102078.38;5136828;27;20097;-78
2023/12/27 03:09:47;;;;;;;7.57;4.60;;;;;;;1.48;100.00;102071.59;5136962;27;20474;-78
2023/12/27 03:12:14;;;;;;;11.45;4.70;;;;;;;1.45;100.00;102069.66;5131891;27;20060;-78
2023/12/27 03:14:41;;;;;;;9.63;4.70;;;;;;;1.47;100.00;102061.44;5137304;27;20514;-78
2023/12/27 03:17:08;;;;;;;15.75;4.47;;;;;;;1.47;100.00;102051.69;5172239;27;20066;-78
2023/12/27 03:19:34;;;;;;;14.82;5.10;;;;;;;1.51;100.00;102059.66;5178842;27;20081;-78
2023/12/27 03:22:01;;;;;;;8.20;4.60;;;;;;;1.51;100.00;102052.53;5160373;27;20042;-78
2023/12/27 03:24:28;;;;;;;10.43;4.80;;;;;;;1.54;100.00;102049.22;5160006;27;20567;-77
2023/12/27 03:26:55;;;;;;;12.00;5.35;;;;;;;1.56;100.00;102046.25;5160592;27;20051;-78
2023/12/27 03:29:21;;;;;;;13.55;4.70;;;;;;;1.56;100.00;102047.00;5159852;27;20085;-78
2023/12/27 03:31:48;;;;;;;18.52;5.22;;;;;;;1.58;100.00;102028.28;5160656;27;20077;-78
2023/12/27 03:34:15;;;;;;;14.68;5.57;;;;;;;1.59;100.00;102033.19;5179036;27;20114;-78
2023/12/27 03:36:42;;;;;;;9.32;5.15;;;;;;;1.63;100.00;102033.25;5178717;27;20689;-78
2023/12/27 03:39:10;;;;;;;7.43;4.57;;;;;;;1.65;100.00;102036.28;5156106;27;20160;-78
2023/12/27 03:41:37;;;;;;;7.88;4.95;;;;;;;1.65;100.00;102034.41;5178642;27;20042;-78
2023/12/27 03:44:04;;;;;;;12.05;4.97;;;;;;;1.67;100.00;102036.69;5158679;27;20043;-77
2023/12/27 03:46:30;;;;;;;12.27;5.38;;;;;;;1.68;100.00;102022.47;5159613;27;20363;-78
2023/12/27 03:48:57;;;;;;;10.82;5.07;;;;;;;1.70;100.00;102016.88;5159315;27;20070;-78
2023/12/27 03:51:24;;;;;;;9.75;5.30;;;;;;;1.72;100.00;102027.78;5178675;27;20049;-77
2023/12/27 03:53:51;;;;;;;11.50;4.60;;;;;;;1.72;100.00;102035.66;5179407;27;20035;-78
2023/12/27 03:56:17;;;;;;;14.30;5.45;;;;;;;1.74;100.00;102030.81;5159246;27;20053;-78
2023/12/27 03:58:44;;;;;;;10.82;6.40;;;;;;;1.74;100.00;102017.69;5159132;27;20099;-78
2023/12/27 04:01:12;;;;;;;12.02;5.50;;;;;;;1.74;100.00;102020.31;5141204;27;20493;-78
2023/12/27 04:03:40;;;;;;;13.35;6.10;;;;;;;1.76;100.00;102003.13;5177915;27;20577;-78
2023/12/27 04:06:07;;;;;;;7.88;4.82;;;;;;;1.79;100.00;101999.81;5178182;27;20136;-79
2023/12/27 04:08:33;;;;;;;8.90;5.32;;;;;;;1.81;100.00;102000.22;5179949;27;20862;-79
2023/12/27 04:11:00;;;;;;;9.32;5.57;;;;;;;1.85;100.00;102002.91;5180396;27;20046;-78
2023/12/27 04:13:26;;;;;;;12.40;5.95;;;;;;;1.89;100.00;101995.84;5179369;27;20078;-78
2023/12/27 04:15:53;;;;;;;10.23;5.63;;;;;;;1.91;100.00;101989.13;5160002;27;20512;-78
2023/12/27 04:18:20;;;;;;;9.93;5.82;;;;;;;1.95;100.00;101991.81;5178088;27;20050;-78
2023/12/27 04:20:46;;;;;;;13.32;6.25;;;;;;;1.99;100.00;101985.53;5178596;27;20039;-78
2023/12/27 04:23:13;;;;;;;13.43;7.03;;;;;;;2.05;100.00;101979.97;5178316;27;20114;-78
2023/12/27 04:25:39;;;;;;;10.43;7.40;;;;;;;2.09;100.00;101973.66;5159410;27;20055;-79
2023/12/27 04:28:07;;;;;;;16.25;7.68;;;;;;;2.14;100.00;101968.13;5160968;27;20127;-79
2023/12/27 04:30:33;;;;;;;11.40;6.45;;;;;;;2.19;100.00;101972.31;5160446;27;20034;-79
2023/12/27 04:33:00;;;;;;;13.68;7.43;;;;;;;2.23;100.00;101973.91;5160365;27;20038;-79
2023/12/27 04:35:27;;;;;;;17.42;7.82;;;;;;;2.24;100.00;101962.28;5160552;27;20043;-79
2023/12/27 04:37:54;;;;;;;11.85;7.38;;;;;;;2.30;100.00;101960.09;5161493;27;20042;-79
2023/12/27 04:40:22;;;;;;;14.43;7.88;;;;;;;2.33;100.00;101960.16;5160017;27;20051;-79
2023/12/27 04:42:49;;;;;;;16.10;8.35;;;;;;;2.38;100.00;101951.22;5175933;27;20039;-79
2023/12/27 04:45:15;;;;;;;14.13;8.00;;;;;;;2.45;100.00;101947.91;5178884;27;20042;-78
2023/12/27 04:47:42;;;;;;;13.82;8.05;;;;;;;2.48;100.00;101941.97;5178873;27;20491;-79
2023/12/27 04:50:09;;;;;;;16.67;7.85;;;;;;;2.50;100.00;101937.84;5161075;27;20050;-79
2023/12/27 04:52:36;;;;;;;20.88;8.00;;;;;;;2.54;100.00;101936.03;5179480;27;20039;-79
2023/12/27 04:55:03;;;;;;;18.80;9.05;;;;;;;2.58;100.00;101926.34;5158256;27;20069;-79
2023/12/27 04:57:30;;;;;;;19.35;9.07;;;;;;;2.63;100.00;101931.28;5161840;27;20072;-78
2023/12/27 04:59:57;;;;;;;16.42;8.63;;;;;;;2.67;100.00;101923.44;5163240;27;20050;-78
2023/12/27 05:02:24;;;;;;;13.95;8.02;;;;;;;2.71;100.00;101924.25;5161650;27;20508;-78
2023/12/27 05:04:50;;;;;;;10.15;7.45;;;;;;;2.75;100.00;101922.44;5160744;27;20051;-78
2023/12/27 05:07:17;;;;;;;13.30;8.18;;;;;;;2.80;100.00;101916.09;5163740;27;20820;-78
2023/12/27 05:09:44;;;;;;;11.45;7.20;;;;;;;2.83;100.00;101920.63;5163278;27;20116;-78
2023/12/27 05:12:11;;;;;;;20.55;8.43;;;;;;;2.88;100.00;101918.44;5163114;27;20133;-78
2023/12/27 05:14:38;;;;;;;19.50;8.50;;;;;;;2.92;100.00;101907.97;5179069;27;20082;-78
2023/12/27 05:17:04;;;;;;;16.02;7.38;;;;;;;2.95;100.00;101900.13;5177415;27;20534;-78
2023/12/27 05:19:31;;;;;;;15.13;8.25;;;;;;;2.98;100.00;101901.28;5177514;27;20065;-79
2023/12/27 05:21:58;;;;;;;16.77;8.23;;;;;;;2.98;100.00;101896.78;5177937;27;20046;-78
2023/12/27 05:24:24;;;;;;;16.13;8.23;;;;;;;3.04;100.00;101888.56;5176512;27;20050;-78
2023/12/27 05:26:53;;;;;;;15.57;7.53;;;;;;;3.06;100.00;101887.09;5177166;27;20072;-78
2023/12/27 05:29:19;;;;;;;19.70;8.23;;;;;;;3.10;100.00;101887.13;5176755;27;20043;-78
2023/12/27 05:31:46;;;;;;;14.18;8.30;;;;;;;3.12;100.00;101879.63;5176536;27;20027;-78
2023/12/27 05:34:12;;;;;;;21.80;7.65;;;;;;;3.14;100.00;101880.03;5176851;27;20049;-78
2023/12/27 05:36:39;;;;;;;13.45;7.53;;;;;;;3.18;100.00;101883.47;5176813;27;20038;-78
2023/12/27 05:39:06;;;;;;;18.75;8.13;;;;;;;3.21;100.00;101882.72;5176650;27;20394;-78
2023/12/27 05:41:32;;;;;;;18.80;8.43;;;;;;;3.23;100.00;101886.50;5156950;27;20110;-78
2023/12/27 05:43:59;;;;;;;15.63;7.53;;;;;;;3.27;100.00;101881.28;5176303;27;20586;-78
2023/12/27 05:46:25;;;;;;;13.93;7.38;;;;;;;3.29;100.00;101879.78;5171989;27;20049;-78
2023/12/27 05:48:52;;;;;;;17.55;8.05;;;;;;;3.31;100.00;101866.28;5176522;27;20046;-78
2023/12/27 05:51:19;;;;;;;19.05;7.85;;;;;;;3.36;100.00;101873.84;5175426;27;20035;-77
2023/12/27 05:53:46;;;;;;;14.68;7.60;;;;;;;3.40;100.00;101872.00;5176410;27;20100;-78
2023/12/27 05:56:12;;;;;;;17.88;8.27;;;;;;;3.41;100.00;101859.59;5157606;27;20045;-78
2023/12/27 05:58:39;;;;;;;20.92;7.93;;;;;;;3.44;100.00;101864.91;5175961;27;20095;-78
2023/12/27 06:01:06;;;;;;;14.38;7.95;;;;;;;3.45;100.00;101866.41;5176456;27;20035;-78
2023/12/27 06:03:33;;;;;;;16.30;7.68;;;;;;;3.48;100.00;101852.53;5158474;27;20066;-78
2023/12/27 06:06:01;;;;;;;21.17;9.00;;;;;;;3.51;100.00;101854.44;5160036;27;20497;-78
2023/12/27 06:08:28;;;;;;;19.45;8.00;;;;;;;3.54;100.00;101852.97;5180375;27;20038;-78
2023/12/27 06:10:55;;;;;;;12.38;8.30;;;;;;;3.56;100.00;101840.19;5181429;27;20077;-78
2023/12/27 06:13:21;;;;;;;18.27;7.45;;;;;;;3.56;100.00;101840.94;5179868;27;20027;-78
2023/12/27 06:15:48;;;;;;;18.17;7.57;;;;;;;3.59;100.00;101839.47;5179705;27;20077;-78
2023/12/27 06:18:14;;;;;;;15.38;7.28;;;;;;;3.61;100.00;101827.41;5180676;27;20042;-78
2023/12/27 06:20:41;;;;;;;12.65;7.32;;;;;;;3.64;100.00;101829.31;5180284;27;20149;-78
2023/12/27 06:23:08;;;;;;;17.08;7.15;;;;;;;3.66;100.00;101827.09;5180876;27;20046;-78
2023/12/27 06:25:34;;;;;;;17.85;7.45;;;;;;;3.68;100.00;101813.56;5179814;27;20543;-78
2023/12/27 06:28:01;;;;;;;17.83;7.50;;;;;;;3.71;100.00;101817.34;5178455;27;20122;-78
2023/12/27 06:30:28;;;;;;;19.05;7.57;;;;;;;3.74;100.00;101808.69;5180787;27;20068;-78
2023/12/27 06:32:55;;;;;;;17.83;7.55;;;;;;;3.77;100.00;101802.69;5180821;27;20099;-79
2023/12/27 06:35:21;;;;;;;17.95;7.75;;;;;;;3.79;100.00;101803.09;5162034;27;20042;-79
2023/12/27 06:37:48;;;;;;;19.90;7.63;;;;;;;3.82;100.00;101799.72;5181597;27;20039;-78
2023/12/27 06:40:15;;;;;;;17.25;7.10;;;;;;;3.84;100.00;101797.50;5180633;27;20046;-78
2023/12/27 06:42:42;;;;;;;13.57;7.05;;;;;;;3.86;100.00;101793.38;5181061;27;20042;-78
2023/12/27 06:45:09;;;;;;;21.73;7.72;;;;;;;3.90;100.00;101790.75;5181567;27;20491;-77
2023/12/27 06:47:36;;;;;;;10.38;7.32;;;;;;;3.92;100.00;101784.00;5184653;27;20546;-78
2023/12/27 06:50:03;;;;;;;11.35;7.53;;;;;;;3.95;100.00;101766.69;5162829;27;20122;-77
2023/12/27 06:52:30;;;;;;;13.65;7.50;;;;;;;3.96;100.00;101766.34;5184795;27;20047;-78
2023/12/27 06:54:56;;;;;;;18.15;7.18;;;;;;;3.99;100.00;101770.88;5184804;27;20031;-78
2023/12/27 06:57:23;;;;;;;14.77;7.50;;;;;;;4.01;100.00;101776.50;5183100;27;20035;-76
2023/12/27 06:59:50;;;;;;;21.38;6.93;;;;;;;4.04;100.00;101764.47;5184620;27;20046;-78
2023/12/27 07:02:17;;;;;;;15.73;6.75;;;;;;;4.08;100.00;101764.47;5180106;27;20047;-78
2023/12/27 07:04:44;;;;;;;14.23;6.13;;;;;;;4.12;100.00;101755.47;5180828;27;20046;-76
2023/12/27 07:07:11;;;;;;;12.77;6.75;;;;;;;4.15;100.00;101759.25;5181309;27;20042;-77
2023/12/27 07:09:37;;;;;;;13.57;6.40;;;;;;;4.18;100.00;101750.59;5182125;27;20126;-77
2023/12/27 07:12:04;;;;;;;8.40;5.72;;;;;;;4.20;100.00;101751.75;5161317;27;20074;-78
2023/12/27 07:14:31;;;;;;;11.52;6.65;;;;;;;4.23;100.00;101745.72;5179776;27;20039;-77
2023/12/27 07:16:58;;;;;;;13.30;6.18;;;;;;;4.27;100.00;101748.38;5179170;27;20134;-79
2023/12/27 07:19:25;;;;;;;16.08;6.18;;;;;;;4.28;100.00;101745.38;5160799;27;20135;-77
2023/12/27 07:21:52;;;;;;;12.80;6.45;;;;;;;4.30;100.00;101737.09;5179597;27;20043;-78
2023/12/27 07:24:18;;;;;;;18.80;6.18;;;;;;;4.33;100.00;101739.00;5162663;27;20064;-76
2023/12/27 07:26:45;;;;;;;13.23;5.55;;;;;;;4.37;100.00;101733.75;5179744;27;20531;-79
2023/12/27 07:29:12;;;;;;;15.15;5.43;;;;;;;4.40;100.00;101725.81;5179498;27;20042;-78
2023/12/27 07:31:38;;;;;;;14.75;5.43;;;;;;;4.41;100.00;101719.41;5181052;27;20733;-78
2023/12/27 07:34:05;;;;;;;11.18;5.43;;;;;;;4.43;100.00;101721.69;5178975;27;20039;-77
2023/12/27 07:36:32;;;;;;;15.15;5.53;;;;;;;4.46;100.00;101715.66;5178206;27;20834;-77
2023/12/27 07:38:59;;;;;;;14.15;5.20;;;;;;;4.48;100.00;101722.06;5178775;27;20855;-78
2023/12/27 07:41:26;;;;;;;12.85;5.00;;;;;;;4.50;100.00;101719.81;5180116;27;20047;-77
2023/12/27 07:43:52;;;;;;;13.65;4.63;;;;;;;4.52;100.00;101735.28;5180423;27;20537;-81
2023/12/27 07:46:19;;;;;;;14.50;5.47;;;;;;;4.55;100.00;101726.63;5161591;27;20103;-79
2023/12/27 07:48:46;;;;;;;9.30;4.93;;;;;;;4.56;100.00;101723.59;5162809;27;20486;-78
2023/12/27 07:51:12;;;;;;;14.07;5.05;;;;;;;4.57;100.00;101714.56;5175723;27;20039;-76
2023/12/27 07:53:39;;;;;;;14.73;5.10;;;;;;;4.59;100.00;101707.03;5177341;27;20047;-77
2023/12/27 07:56:12;;;;;;;11.40;4.63;;;;;;;4.61;100.00;101704.78;5177355;27;20446;-76
2023/12/27 07:58:39;;;;;;;11.23;4.95;;;;;;;4.63;100.00;101704.41;5177949;27;20049;-79
2023/12/27 08:01:06;;;;;;;18.17;5.38;;;;;;;4.64;100.00;101696.13;5178896;27;20050;-77
2023/12/27 08:03:32;;;;;;;13.10;4.90;;;;;;;4.66;100.00;101698.38;5179524;27;20053;-77
2023/12/27 08:05:59;;;;;;;20.17;5.55;;;;;;;4.67;100.00;101705.16;5180515;27;20034;-79
2023/12/27 08:08:26;;;;;;;14.32;5.10;;;;;;;4.68;100.00;101707.44;5179133;27;20042;-80
2023/12/27 08:10:53;;;;;;;12.18;5.55;;;;;;;4.69;100.00;101698.38;5161868;27;20082;-78
2023/12/27 08:13:19;;;;;;;11.80;5.07;;;;;;;4.69;100.00;101708.94;5158310;27;20130;-79
2023/12/27 08:15:46;;;;;;;12.30;5.68;;;;;;;4.71;100.00;101705.16;5155992;27;20488;-83
2023/12/27 08:18:12;;;;;;;11.77;5.50;;;;;;;4.72;100.00;101698.78;5160362;27;20046;-78
2023/12/27 08:20:39;;;;;;;12.13;5.53;;;;;;;4.75;100.00;101705.94;5162388;27;20884;-85
2023/12/27 08:23:07;;;;;;;14.40;5.55;;;;;;;4.74;100.00;101693.88;5161345;27;20046;-81
2023/12/27 08:25:34;;;;;;;17.52;5.38;;;;;;;4.75;100.00;101688.22;5161969;27;20034;-83
2023/12/27 08:28:01;;;;;;;12.98;6.63;;;;;;;4.77;100.00;101682.56;5162566;27;20489;-84
2023/12/27 08:30:28;;;;;;;8.10;5.03;;;;;;;4.78;100.00;101676.16;5164669;27;20070;-81
2023/12/27 08:32:55;;;;;;;8.93;5.82;;;;;;;4.79;100.00;101669.75;5170462;27;20042;-81
2023/12/27 08:35:22;;;;;;;9.25;5.25;;;;;;;4.80;100.00;101684.47;5187107;27;20035;-81
2023/12/27 08:37:49;;;;;;;9.65;5.55;;;;;;;4.81;100.00;101676.16;5169227;27;20071;-80
2023/12/27 08:40:16;;;;;;;8.63;5.47;;;;;;;4.82;100.00;101674.25;5167715;27;20065;-79
2023/12/27 08:42:43;;;;;;;8.25;5.70;;;;;;;4.83;100.00;101673.13;5163311;27;20047;-79
2023/12/27 08:45:10;;;;;;;7.22;5.32;;;;;;;4.86;100.00;101664.47;5162862;27;20073;-81
2023/12/27 08:47:38;;;;;;;9.15;5.22;;;;;;;4.87;100.00;101650.91;5179181;27;20037;-79
2023/12/27 08:50:05;;;;;;;5.55;4.95;;;;;;;4.89;100.00;101653.91;5179764;27;20867;-79
2023/12/27 08:52:32;;;;;;;9.50;5.35;;;;;;;4.90;100.00;101642.22;5179830;27;20039;-79
2023/12/27 08:54:58;;;;;;;6.82;5.13;;;;;;;4.90;100.00;101642.22;5179684;27;20043;-79
2023/12/27 08:57:25;;;;;;;7.07;5.05;;;;;;;4.92;100.00;101637.31;5180526;27;20121;-78
2023/12/27 08:59:53;;;;;;;6.38;5.03;;;;;;;4.95;100.00;101635.81;5183032;27;20125;-78
2023/12/27 09:02:19;;;;;;;5.68;5.05;;;;;;;4.97;100.00;101623.75;5162739;27;20066;-85
2023/12/27 09:04:46;;;;;;;6.22;5.60;;;;;;;5.00;100.00;101623.00;5161844;27;20114;-78
2023/12/27 09:07:13;;;;;;;7.00;5.13;;;;;;;5.02;100.00;101625.25;5180392;27;20086;-85
2023/12/27 09:09:40;;;;;;;6.03;4.88;;;;;;;5.06;100.00;101615.44;5160897;27;20502;-83
2023/12/27 09:12:06;;;;;;;7.30;5.72;;;;;;;5.09;100.00;101619.22;5179748;27;20115;-83
2023/12/27 09:14:39;;;;;;;7.78;5.50;;;;;;;5.12;100.00;101607.91;5179605;27;20061;-83
2023/12/27 09:17:06;;;;;;;6.97;4.97;;;;;;;5.14;100.00;101605.63;5160993;27;20055;-83
2023/12/27 09:19:33;;;;;;;6.53;5.00;;;;;;;5.18;100.00;101603.75;5161333;27;20046;-84
2023/12/27 09:22:01;;;;;;;5.05;4.65;;;;;;;5.22;100.00;101588.63;5163904;27;20139;-83
2023/12/27 09:24:28;;;;;;;5.63;4.95;;;;;;;5.26;100.00;101582.19;5163098;27;20047;-83
2023/12/27 09:26:54;;;;;;;5.82;5.32;;;;;;;5.29;100.00;101588.59;5182976;27;20043;-83
2023/12/27 09:29:21;;;;;;;7.13;5.28;;;;;;;5.30;100.00;101598.03;5165257;27;20038;-83
2023/12/27 09:31:48;;;;;;;5.43;4.65;;;;;;;5.30;100.00;101595.41;5161930;27;20038;-83
2023/12/27 09:34:15;;;;;;;6.32;5.28;;;;;;;5.33;100.00;101586.72;5159822;27;20043;-83
2023/12/27 09:36:42;;;;;;;6.13;5.55;;;;;;;5.34;100.00;101570.50;5160078;27;20142;-83
2023/12/27 09:39:11;;;;;;;7.05;5.60;;;;;;;5.37;100.00;101582.19;5180838;27;20042;-83
2023/12/27 09:41:38;;;;;;;9.35;6.00;;;;;;;5.40;100.00;101565.56;5178572;27;20043;-83
2023/12/27 09:44:06;;;;;;;6.88;5.65;;;;;;;5.43;100.00;101567.44;5181236;27;20655;-83
2023/12/27 09:46:36;;;;;;;5.82;5.28;;;;;;;5.47;100.00;101565.53;5181634;27;20034;-83
2023/12/27 09:49:04;;;;;;;9.52;5.63;;;;;;;5.51;100.00;101566.28;5159221;27;20039;-83
2023/12/27 09:51:30;;;;;;;9.00;5.57;;;;;;;5.57;100.00;101570.03;5177569;27;20042;-82
2023/12/27 09:53:57;;;;;;;8.20;5.35;;;;;;;5.60;100.00;101569.25;5163881;27;20038;-82
2023/12/27 09:56:25;;;;;;;5.90;4.93;;;;;;;5.65;100.00;101573.38;5183668;27;20844;-83
2023/12/27 09:58:58;;;;;;;5.43;4.80;;;;;;;5.69;100.00;101574.88;5163180;27;20043;-83
2023/12/27 10:01:26;;;;;;;6.95;5.38;;;;;;;5.75;100.00;101571.81;5179856;27;20125;-83
2023/12/27 10:04:16;;;;;;;6.47;5.18;;;;;;;5.78;100.00;101555.19;5181231;27;20047;-83
2023/12/27 10:06:44;;;;;;;7.55;5.00;;;;;;;5.83;100.00;101549.50;5142563;27;20093;-83
2023/12/27 10:09:12;;;;;;;5.72;5.22;;;;;;;5.88;100.00;101533.25;5162205;27;20069;-83
2023/12/27 10:11:43;;;;;;;7.15;4.75;;;;;;;5.96;100.00;101524.94;5160834;27;20065;-83
2023/12/27 10:14:12;;;;;;;5.45;4.95;;;;;;;6.03;100.00;101514.28;5147883;27;20051;-84
2023/12/27 10:16:39;;;;;;;6.05;5.30;;;;;;;6.11;100.00;101517.63;5161287;27;20051;-81
2023/12/27 10:19:07;;;;;;;6.43;4.88;;;;;;;6.16;100.00;101516.47;5163766;27;20150;-79
2023/12/27 10:21:43;;;;;;;6.40;5.53;;;;;;;6.20;100.00;101515.28;5180012;27;20470;-79
2023/12/27 10:24:10;;;;;;;5.47;4.97;;;;;;;6.24;100.00;101505.44;5176188;27;20076;-79
2023/12/27 10:26:37;;;;;;;7.25;5.45;;;;;;;6.27;100.00;101503.91;5179867;27;20049;-79
2023/12/27 10:29:04;;;;;;;6.18;5.20;;;;;;;6.31;100.00;101523.91;5180724;27;20582;-79
2023/12/27 10:31:31;;;;;;;5.65;5.05;;;;;;;6.34;100.00;101525.78;5180443;27;20059;-79
2023/12/27 10:34:02;;;;;;;5.53;5.03;;;;;;;6.35;100.00;101498.19;5180255;27;20039;-79
2023/12/27 10:36:30;;;;;;;8.25;5.25;;;;;;;6.39;100.00;101500.03;5179742;27;20042;-79
2023/12/27 10:38:59;;;;;;;5.82;5.28;;;;;;;6.43;100.00;101498.84;5180025;27;20043;-83
2023/12/27 10:41:26;;;;;;;5.65;5.15;;;;;;;6.49;100.00;101501.81;5179521;27;20058;-83
2023/12/27 10:43:53;;;;;;;4.55;4.15;;;;;;;6.50;100.00;101490.84;5183562;27;20081;-82
2023/12/27 10:46:20;;;;;;;6.80;5.13;;;;;;;6.53;100.00;101500.66;5191259;27;20030;-83
2023/12/27 10:48:51;;;;;;;5.22;4.72;;;;;;;6.57;100.00;101488.13;5191780;27;20031;-82
2023/12/27 10:51:21;;;;;;;7.68;5.38;;;;;;;6.62;100.00;101489.59;5192688;27;20107;-82
2023/12/27 10:53:49;;;;;;;5.55;5.05;;;;;;;6.64;100.00;101472.19;5156347;27;20054;-83
2023/12/27 10:56:19;;;;;;;5.95;5.30;;;;;;;6.67;100.00;101468.00;5177506;27;20043;-83
2023/12/27 10:58:51;;;;;;;7.15;5.45;;;;;;;6.69;100.00;101461.19;5177981;27;20057;-85
2023/12/27 11:01:19;;;;;;;5.57;5.05;;;;;;;6.73;100.00;101465.69;5156548;27;20509;-85
2023/12/27 11:03:47;;;;;;;7.85;5.10;;;;;;;6.73;100.00;101453.22;5147533;27;20896;-83
2023/12/27 11:06:17;;;;;;;8.82;5.32;;;;;;;6.74;100.00;101444.13;5144059;27;20125;-79
2023/12/27 11:08:46;;;;;;;5.97;5.20;;;;;;;6.77;100.00;101445.22;5179108;27;20425;-77
2023/12/27 11:11:14;;;;;;;6.30;5.25;;;;;;;6.79;100.00;101450.88;5174159;27;20130;-77
2023/12/27 11:13:42;;;;;;;6.18;5.32;;;;;;;6.81;100.00;101449.31;5159431;27;20095;-77
2023/12/27 11:16:10;;;;;;;5.47;4.97;;;;;;;6.82;100.00;101448.16;5179278;27;20624;-76
2023/12/27 11:18:38;;;;;;;9.70;5.15;;;;;;;6.85;100.00;101433.41;5178221;27;20045;-78
2023/12/27 11:21:06;;;;;;;6.03;5.10;;;;;;;6.88;100.00;101435.25;5159685;27;20051;-78